Sign in:
Email
 Password  save:
  
 Company Reports 
 
   
My Recent Searches
  Help
 
   
 
 
Get Institutions for : 
AutoNation Inc (AN)    
$62.03 0.48 (0.77%) as of 4:30 Tue 2/24


Download
     
Institutional Holders
Viewing Quarter :
  
Total Institutions: 271    2
Total shares held : 
71,983,357  
% of shares held : 
59.53%  
Changes In:
New/increased positions vs   
old/decreased positions : 
  49  
Amount of shares held : 
-4,788,921  
% of shares held change : 
  -3.96%  
Quarter Price vs. Current Price:
Last Quarter's Starting Price
$49.10  
Last Quarter's Ending Price : 
$60.41  
Last Quarter's Average Price
$55.88  
Change from last quarter's     
avg. price to the last closing  : 
6.15 (11%)  




 
All Securities Held :
Positions
     Shares
% Of
Total Shares
New Positions :
33
 2,039,347
 2.83%
 
Increased Positions :
129
 7,942,062
 11.03%
 
Unchanged Positions :
31
 9,413,699
 13.08%
 
Decreased Positions :
78
-8,186,512
-11.37%
 
Closed Positions :
35
-6,583,818
-9.15%
 
Guru Positions :
2
8,922,526
 12.4%
 
View holdings for period: 
12-31-2012 View holdings for period: 
3-31-2013 View holdings for period: 
6-30-2013 View holdings for period: 
9-30-2013 View holdings for period: 
12-31-2013 View holdings for period: 
3-31-2014 View holdings for period: 
6-30-2014 View holdings for the current period

  Page 1 of 1  
Free Registration Required For Full Results


            Institution Name
Portfolio
Position
New/Closed
Position

Filing Date

Total Shares

Total Value

Change in Shares

File
   RBS PARTNERS LP -- Notable Guru -- 2 - 2014-09-30 8,735,116 $439,464,000 -3,080,461
   CAPITAL RESEARCH GLOBAL INVESTORS 153 - 2014-12-31 6,519,000 $388,663,000 0
   VANGUARD GROUP INC 722 - 2014-12-31 5,536,206 $334,443,000 4,119
   HORIZON KINETICS LLC 5 - 2014-12-31 4,619,185 $279,045,000 -94,125
   OZ MANAGEMENT LP 36 - 2014-09-30 4,452,429 $224,002,000 1,956,457
   STATE STREET CORP 592 - 2014-12-31 3,511,524 $212,127,000 397,272
   ALLIANCEBERNSTEIN L.P. 152 - 2014-12-31 2,981,620 $180,120,000 2,850,914
   SCOPIA MANAGEMENT INC 12 - 2014-12-31 2,301,239 $139,018,000 -145,688
   BLACKROCK INSTITUTIONAL TRUST COMPANY 786 - 2014-12-31 1,954,675 $118,082,000 -73,486
   BILL & MELINDA GATES FOUNDATION TRUST 15 - 2014-12-31 1,898,716 $114,701,000 0
   GLENVIEW CAPITAL MANAGEMENT LLC 57 - 2014-12-31 1,511,076 $91,284,000 400,000
   EMINENCE CAPITAL LLC 42 - 2014-12-31 1,452,376 $87,738,000 -209,947
   J P MORGAN CHASE & CO 671 - 2014-12-31 1,281,062 $77,390,000 1,198,037
   HIGHLINE CAPITAL MANAGEMENT LLC 15 - 2014-12-31 1,155,700 $69,816,000 121,000
   BANK OF AMERICA CORP /DE/ 575 - 2014-12-31 1,092,827 $66,017,000 -303,780
   GAMCO INVESTORS INC ET AL 93 - 2014-12-31 1,028,006 $62,102,000 -16,023
   BLACKROCK FUND ADVISORS 1362 - 2014-12-31 956,428 $57,778,000 45,440
   NEW MOUNTAIN VANTAGE ADVISERS LLC 16 - 2014-12-31 952,682 $57,552,000 -230,892
   FMR LLC 1256 - 2014-12-31 938,267 $56,680,000 -4,179
   NORTHERN TRUST CORP 791 - 2014-12-31 873,024 $52,738,000 -27,313
   GOTHAM ASSET MANAGEMENT, LLC 79 - 2014-12-31 770,412 $46,541,000 732,524
   BANK OF NEW YORK MELLON CORP 929 - 2014-12-31 768,511 $46,425,000 -46,727
   CLOUGH CAPITAL PARTNERS L P 11 - 2014-12-31 691,293 $41,761,000 -179,107
   LOOMIS SAYLES & CO L P 153 - 2014-12-31 644,407 $38,929,000 -99,820
   GEODE CAPITAL MANAGEMENT LLC 623 - 2014-12-31 562,168 $33,915,000 -3,231
   BLACKROCK GROUP LTD 691 - 2014-12-31 540,212 $32,634,000 115,938
   EVERCORE WEALTH MANAGEMENT, LLC 25 - 2014-12-31 456,465 $27,534,000 22,377
   GOLDMAN SACHS GROUP INC/ 1157 - 2014-12-31 448,037 $27,066,000 84,665
   DIMENSIONAL FUND ADVISORS INC 1429 - 2014-12-31 444,705 $26,866,000 50,856
   GABELLI FUNDS LLC 247 - 2014-12-31 400,700 $24,206,000 2,700
   GUGGENHEIM CAPITAL LLC 593 - 2014-12-31 392,474 $23,709,000 -788,209
   ALLIANZ ASSET MANAGEMENT AG 571 - 2014-12-31 380,694 $22,998,000 19,795
   ZEKE CAPITAL ADVISORS, LLC 1 - 2014-12-31 380,552 $22,989,000 0
   MORGAN STANLEY 1363 - 2014-12-31 380,184 $22,966,000 7,553
   MILLENNIUM MANAGEMENT LLC 532 - 2014-12-31 376,139 $22,723,000 232,644
   POLAR CAPITAL LLP 70 - 2014-12-31 374,648 $22,632,000 -86,222
   AXIOM INTERNATIONAL INVESTORS LLC /DE 63 - 2014-12-31 351,350 $21,225,000 -227,250
   PROXIMA CAPITAL MANAGEMENT, LLC 17 - 2014-12-31 300,000 $18,123,000 0
   SPEARS ABACUS ADVISORS LLC 22 - 2014-12-31 298,058 $18,006,000 2,330
   CREDIT SUISSE/ 813 - 2014-12-31 290,820 $17,569,000 -1,780
   Adams Hall Wealth Advisors LLC 12 - 2014-06-30 256,549 $15,311,000 0
   CALIFORNIA PUBLIC EMPLOYEES RETIREMENT SYSTEM 747 - 2014-12-31 247,100 $14,779,000 84,600
   NEW YORK STATE COMMON RETIREMENT FUND 697 - 2014-12-31 239,102 $14,444,000 18,471
   CANADA PENSION PLAN INVESTMENT BOARD 376 - 2014-12-31 236,152 $14,266,000 142,419
   Winton Capital Group Ltd 228 - 2014-12-31 228,987 $13,833,000 21,988
   BLACKROCK INVESTMENT MANAGEMENT LLC 769 - 2014-12-31 215,843 $13,039,000 -8,198
   MITSUBISHI UFJ TRUST & BANKING CORP 574 - 2014-12-31 212,837 $12,857,000 72,915
   TIAA CREF INVESTMENT MANAGEMENT LLC 962 - 2014-12-31 210,992 $12,746,000 78,926
   DEUTSCHE BANK AG 1240 - 2014-12-31 210,312 $12,702,000 32,575
   INVESCO LTD 1317 - 2014-12-31 209,969 $12,684,000 55,904
   WELLS FARGO & CO/MN 1600 - 2014-12-31 209,477 $12,654,000 -780,015
   UBS GLOBAL ASSET MANAGEMENT AMERICAS INC 771 - 2014-12-31 208,673 $12,606,000 8,276
   PRUDENTIAL FINANCIAL INC 676 - 2014-12-31 193,942 $11,716,000 98,570
   COBALT CAPITAL MANAGEMENT INC 29 *New 2014-12-31 177,000 $10,693,000 177,000
   SUMITOMO MITSUI TRUST HOLDINGS, INC. 619 - 2014-12-31 175,752 $10,686,000 -7,894
   SCHWAB CHARLES INVESTMENT MANAGEMENT INC 794 - 2014-06-30 176,298 $10,522,000 3,322
   LEGAL & GENERAL GROUP PLC 633 - 2014-12-31 158,199 $9,557,000 12,142
   D E SHAW & CO INC 673 - 2014-12-31 156,476 $9,453,000 147,576
   BLACKROCK INC. 700 - 2014-12-31 144,872 $8,752,000 2,260
   Atlantic Trust Group LLC 222 - 2014-12-31 133,221 $8,049,000 -573
   CALIFORNIA STATE TEACHERS RETIREMENT SYSTEM 757 - 2014-12-31 128,490 $7,762,000 -5,826
   PRICE T ROWE ASSOCIATES INC /MD/ 1381 - 2014-12-31 128,021 $7,734,000 22,020
   CITADEL ADVISORS LLC 873 - 2014-09-30 150,953 $7,594,000 36,518
   PARAMETRIC PORTFOLIO ASSOCIATES 957 - 2014-12-31 117,669 $7,108,000 -703
   Private Capital Management LLC 48 - 2014-12-31 114,614 $6,924,000 -33,133
   KOREA INVESTMENT CORP 274 - 2014-12-31 113,600 $6,863,000 -12,000
   FIRST TRUST ADVISORS LP 897 - 2014-12-31 113,061 $6,830,000 -191,485
   PRINCIPAL FINANCIAL GROUP INC 1228 - 2014-12-31 112,318 $6,785,000 -2,950
   COMERICA BANK 715 - 2014-12-31 109,128 $6,592,000 51,032
   BIDWELL C M & ASSOCIATES LTD/ 22 *New 2014-12-31 108,390 $6,548,000 108,390
   TEACHERS ADVISORS INC 1051 - 2014-12-31 107,514 $6,495,000 50,104
   OLD WEST INVESTMENT MANAGEMENT, LLC 7 - 2014-12-31 106,597 $6,439,000 -2,353
   RHUMBLINE ADVISERS 670 - 2014-12-31 106,233 $6,418,000 3,358
   FIRST QUADRANT L P/CA 177 - 2014-12-31 100,612 $6,078,000 81,800
   MIZUHO TRUST & BANKING CO., LTD. 628 - 2014-12-31 99,956 $6,038,000 7,459
   SANDLER CAPITAL MANAGEMENT 90 *New 2014-12-31 96,400 $5,824,000 96,400
   BLACKROCK JAPAN CO LTD 617 - 2014-12-31 95,265 $5,755,000 14,897
   CREDIT AGRICOLE S A 571 - 2014-12-31 95,535 $5,685,000 26,274
   NEW YORK STATE TEACHERS RETIREMENT SYSTEM 781 - 2014-12-31 93,737 $5,663,000 3,365
   HUTCHIN HILL CAPITAL, LP 79 - 2014-12-31 89,300 $5,395,000 -53,200
   HBK INVESTMENTS L P 128 - 2014-12-31 87,684 $5,297,000 44,592
   CHILTON INVESTMENT CO LLC 77 - 2014-12-31 85,985 $5,194,000 7,959
   LEUTHOLD WEEDEN CAPITAL MANAGEMENT LLC 67 - 2014-12-31 85,481 $5,164,000 -18,432
   ECHO STREET CAPITAL MANAGEMENT LLC 101 - 2014-12-31 82,899 $5,008,000 -539,918
   ARROWSTREET CAPITAL LIMITED PARTNERSHIP 452 - 2014-12-31 82,757 $4,999,000 77,414
   MANUFACTURERES LIFE INSURANCE CO 987 - 2014-12-31 80,692 $4,874,000 -1,139
   MANAGED ACCOUNT ADVISORS LLC 1408 - 2014-12-31 79,977 $4,831,000 19,782
   AMP CAPITAL INVESTORS LTD 674 - 2014-12-31 21,081 $4,711,000 0
   MARINER WEALTH ADVISORS, LLC 43 - 2014-12-31 77,094 $4,657,000 -22,906
   SHAKER INVESTMENTS LLC/OH 7 - 2014-12-31 74,822 $4,520,000 -12,995
   BRANDYWINE ASSET MANAGEMENT LLC 460 - 2014-12-31 72,873 $4,403,000 13,353
   Swiss National Bank 777 - 2014-12-31 71,400 $4,313,000 -3,000
   HSBC HOLDINGS PLC 758 - 2014-12-31 68,172 $4,118,000 -7,092
   DENALI ADVISORS LLC 32 - 2014-12-31 67,800 $4,096,000 -1,000
   STATE BOARD OF ADMINISTRATION OF FLORIDA RETIREMEN 874 - 2014-12-31 66,412 $4,012,000 847
   FIRST REPUBLIC INVESTMENT MANAGEMENT, INC. 278 - 2014-12-31 63,967 $3,865,000 -18
   APG ALL PENSIONS GROUP 693 - 2014-12-31 60,784 $3,672,000 3,100
   SG AMERICAS SECURITIES LLC 652 - 2014-12-31 59,468 $3,592,000 26,618
   AHL Partners LLP 184 - 2014-12-31 59,424 $3,590,000 46,900
   BRITISH COLUMBIA INVESTMENT MANAGEMENT CORP 401 - 2014-12-31 59,189 $3,576,000 28,717

  100 Records found
  1    
  Page 1 of 1
Free Registration Required For Full Results